sensor_id;sensor_type;location;lat;lon;timestamp;pressure;altitude;pressure_sealevel;temperature;humidity
26563;BME280;14217;50.986;5.826;2022-08-21T00:02:33;101103.53;;;27.86;37.63
26563;BME280;14217;50.986;5.826;2022-08-21T00:07:35;101098.84;;;27.76;37.63
26563;BME280;14217;50.986;5.826;2022-08-21T00:12:37;101090.75;;;27.76;37.45
26563;BME280;14217;50.986;5.826;2022-08-21T00:17:40;101090.28;;;27.71;37.62
26563;BME280;14217;50.986;5.826;2022-08-21T00:22:42;101093.44;;;27.76;37.56
26563;BME280;14217;50.986;5.826;2022-08-21T00:27:44;101080.50;;;27.82;37.16
26563;BME280;14217;50.986;5.826;2022-08-21T00:32:48;101077.56;;;27.73;37.31
26563;BME280;14217;50.986;5.826;2022-08-21T00:37:50;101073.91;;;27.74;37.04
26563;BME280;14217;50.986;5.826;2022-08-21T00:42:52;101082.31;;;27.70;37.19
26563;BME280;14217;50.986;5.826;2022-08-21T00:47:54;101082.22;;;27.71;37.20
26563;BME280;14217;50.986;5.826;2022-08-21T00:52:57;101069.38;;;27.75;37.18
26563;BME280;14217;50.986;5.826;2022-08-21T00:58:03;101073.03;;;27.74;36.95
26563;BME280;14217;50.986;5.826;2022-08-21T01:03:12;101074.38;;;27.68;36.94
26563;BME280;14217;50.986;5.826;2022-08-21T01:08:16;101077.09;;;27.68;36.65
26563;BME280;14217;50.986;5.826;2022-08-21T01:13:19;101075.97;;;27.71;36.76
26563;BME280;14217;50.986;5.826;2022-08-21T01:18:23;101080.50;;;27.70;36.78
26563;BME280;14217;50.986;5.826;2022-08-21T01:23:25;101087.84;;;27.68;36.76
26563;BME280;14217;50.986;5.826;2022-08-21T01:28:27;101086.84;;;27.69;36.53
26563;BME280;14217;50.986;5.826;2022-08-21T01:33:33;101087.84;;;27.68;36.42
26563;BME280;14217;50.986;5.826;2022-08-21T01:38:35;101090.88;;;27.64;36.47
26563;BME280;14217;50.986;5.826;2022-08-21T01:43:37;101088.81;;;27.67;36.32
26563;BME280;14217;50.986;5.826;2022-08-21T01:48:41;101077.78;;;27.59;36.44
26563;BME280;14217;50.986;5.826;2022-08-21T01:53:43;101073.78;;;27.65;36.49
26563;BME280;14217;50.986;5.826;2022-08-21T01:58:47;101074.38;;;27.68;36.19
26563;BME280;14217;50.986;5.826;2022-08-21T02:03:49;101071.19;;;27.63;35.98
26563;BME280;14217;50.986;5.826;2022-08-21T02:08:52;101072.19;;;27.62;36.02
26563;BME280;14217;50.986;5.826;2022-08-21T02:13:53;101072.28;;;27.72;35.74
26563;BME280;14217;50.986;5.826;2022-08-21T02:18:55;101067.75;;;27.61;36.03
26563;BME280;14217;50.986;5.826;2022-08-21T02:23:57;101068.25;;;27.55;36.01
26563;BME280;14217;50.986;5.826;2022-08-21T02:29:00;101075.09;;;27.59;36.00
26563;BME280;14217;50.986;5.826;2022-08-21T02:34:02;101074.88;;;27.62;35.67
26563;BME280;14217;50.986;5.826;2022-08-21T02:39:04;101074.88;;;27.62;35.69
26563;BME280;14217;50.986;5.826;2022-08-21T02:44:06;101072.66;;;27.56;35.74
26563;BME280;14217;50.986;5.826;2022-08-21T02:49:08;101067.75;;;27.61;35.71
26563;BME280;14217;50.986;5.826;2022-08-21T02:54:10;101058.72;;;27.62;35.67
26563;BME280;14217;50.986;5.826;2022-08-21T02:59:12;101056.75;;;27.53;35.56
26563;BME280;14217;50.986;5.826;2022-08-21T03:04:14;101057.38;;;27.56;35.79
26563;BME280;14217;50.986;5.826;2022-08-21T03:09:16;101056.75;;;27.53;35.63
26563;BME280;14217;50.986;5.826;2022-08-21T03:14:18;101064.81;;;27.53;35.46
26563;BME280;14217;50.986;5.826;2022-08-21T03:19:20;101055.16;;;27.50;35.48
26563;BME280;14217;50.986;5.826;2022-08-21T03:24:22;101053.94;;;27.54;35.48
26563;BME280;14217;50.986;5.826;2022-08-21T03:29:24;101060.19;;;27.55;35.54
26563;BME280;14217;50.986;5.826;2022-08-21T03:34:26;101068.88;;;27.47;35.65
26563;BME280;14217;50.986;5.826;2022-08-21T03:39:28;101063.97;;;27.52;35.55
26563;BME280;14217;50.986;5.826;2022-08-21T03:44:30;101073.63;;;27.55;35.39
26563;BME280;14217;50.986;5.826;2022-08-21T03:49:33;101078.16;;;27.54;35.19
26563;BME280;14217;50.986;5.826;2022-08-21T03:54:35;101076.69;;;27.50;35.42
26563;BME280;14217;50.986;5.826;2022-08-21T03:59:37;101084.03;;;27.48;35.35
26563;BME280;14217;50.986;5.826;2022-08-21T04:04:40;101075.59;;;27.53;35.27
26563;BME280;14217;50.986;5.826;2022-08-21T04:09:43;101076.81;;;27.49;34.98
26563;BME280;14217;50.986;5.826;2022-08-21T04:14:45;101079.28;;;27.52;34.87
26563;BME280;14217;50.986;5.826;2022-08-21T04:19:47;101083.88;;;27.38;35.35
26563;BME280;14217;50.986;5.826;2022-08-21T04:24:54;101090.63;;;27.44;35.03
26563;BME280;14217;50.986;5.826;2022-08-21T04:29:56;101079.50;;;27.49;35.13
26563;BME280;14217;50.986;5.826;2022-08-21T04:34:59;101089.41;;;27.48;34.94
26563;BME280;14217;50.986;5.826;2022-08-21T04:40:04;101088.56;;;27.36;35.39
26563;BME280;14217;50.986;5.826;2022-08-21T04:45:07;101083.88;;;27.38;35.13
26563;BME280;14217;50.986;5.826;2022-08-21T04:50:09;101097.00;;;27.43;35.18
26563;BME280;14217;50.986;5.826;2022-08-21T04:55:11;101089.28;;;27.38;35.16
26563;BME280;14217;50.986;5.826;2022-08-21T05:00:14;101090.38;;;27.36;35.24
26563;BME280;14217;50.986;5.826;2022-08-21T05:05:16;101092.59;;;27.42;35.13
26563;BME280;14217;50.986;5.826;2022-08-21T05:10:18;101092.97;;;27.37;35.34
26563;BME280;14217;50.986;5.826;2022-08-21T05:15:21;101092.69;;;27.41;35.21
26563;BME280;14217;50.986;5.826;2022-08-21T05:20:23;101089.91;;;27.42;35.14
26563;BME280;14217;50.986;5.826;2022-08-21T05:25:25;101082.44;;;27.46;34.87
26563;BME280;14217;50.986;5.826;2022-08-21T05:30:28;101095.75;;;27.36;35.21
26563;BME280;14217;50.986;5.826;2022-08-21T05:35:31;101091.72;;;27.30;34.95
26563;BME280;14217;50.986;5.826;2022-08-21T05:40:34;101092.34;;;27.34;35.08
26563;BME280;14217;50.986;5.826;2022-08-21T05:45:36;101092.09;;;27.37;34.89
26563;BME280;14217;50.986;5.826;2022-08-21T05:50:45;101087.69;;;27.36;34.95
26563;BME280;14217;50.986;5.826;2022-08-21T05:55:48;101087.31;;;27.41;34.82
26563;BME280;14217;50.986;5.826;2022-08-21T06:00:51;101096.63;;;27.36;35.15
26563;BME280;14217;50.986;5.826;2022-08-21T06:05:53;101098.34;;;27.37;34.92
26563;BME280;14217;50.986;5.826;2022-08-21T06:10:57;101095.38;;;27.41;34.81
26563;BME280;14217;50.986;5.826;2022-08-21T06:16:11;101100.44;;;27.45;35.07
26563;BME280;14217;50.986;5.826;2022-08-21T06:21:16;101109.84;;;27.51;34.87
26563;BME280;14217;50.986;5.826;2022-08-21T06:26:18;101116.31;;;27.48;34.99
26563;BME280;14217;50.986;5.826;2022-08-21T06:31:24;101108.88;;;27.52;35.05
26563;BME280;14217;50.986;5.826;2022-08-21T06:36:26;101114.75;;;27.57;35.14
26563;BME280;14217;50.986;5.826;2022-08-21T06:41:28;101114.38;;;27.62;35.45
26563;BME280;14217;50.986;5.826;2022-08-21T06:46:39;101115.09;;;27.64;35.66
26563;BME280;14217;50.986;5.826;2022-08-21T06:51:41;101114.25;;;27.63;35.92
26563;BME280;14217;50.986;5.826;2022-08-21T06:56:43;101113.16;;;27.66;35.71
26563;BME280;14217;50.986;5.826;2022-08-21T07:01:45;101127.59;;;27.65;36.11
26563;BME280;14217;50.986;5.826;2022-08-21T07:06:48;101127.97;;;27.71;36.35
26563;BME280;14217;50.986;5.826;2022-08-21T07:11:52;101137.50;;;27.53;38.34
26563;BME280;14217;50.986;5.826;2022-08-21T07:16:55;101133.31;;;27.49;38.00
26563;BME280;14217;50.986;5.826;2022-08-21T07:21:59;101125.63;;;27.44;37.37
26563;BME280;14217;50.986;5.826;2022-08-21T07:27:01;101126.94;;;27.38;37.31
26563;BME280;14217;50.986;5.826;2022-08-21T07:32:08;101131.00;;;27.44;37.53
26563;BME280;14217;50.986;5.826;2022-08-21T07:37:10;101124.41;;;27.48;36.91
26563;BME280;14217;50.986;5.826;2022-08-21T07:42:12;101116.97;;;27.74;37.13
26563;BME280;14217;50.986;5.826;2022-08-21T07:47:14;101106.69;;;27.80;36.72
26563;BME280;14217;50.986;5.826;2022-08-21T07:52:15;101104.00;;;27.68;36.31
26563;BME280;14217;50.986;5.826;2022-08-21T07:57:17;101115.84;;;27.66;36.11
26563;BME280;14217;50.986;5.826;2022-08-21T08:02:27;101109.84;;;27.51;36.23
26563;BME280;14217;50.986;5.826;2022-08-21T08:07:29;101115.09;;;27.64;36.46
26563;BME280;14217;50.986;5.826;2022-08-21T08:12:31;101105.97;;;27.66;36.67
26563;BME280;14217;50.986;5.826;2022-08-21T08:17:33;101103.75;;;27.60;36.63
26563;BME280;14217;50.986;5.826;2022-08-21T08:22:36;101102.75;;;27.50;36.39
26563;BME280;14217;50.986;5.826;2022-08-21T08:27:39;101093.94;;;27.48;37.24
26563;BME280;14217;50.986;5.826;2022-08-21T08:32:41;101080.97;;;27.53;37.89
26563;BME280;14217;50.986;5.826;2022-08-21T08:37:44;101077.81;;;27.36;36.64
26563;BME280;14217;50.986;5.826;2022-08-21T08:42:53;101081.34;;;27.37;36.38
26563;BME280;14217;50.986;5.826;2022-08-21T08:48:00;101078.75;;;27.35;36.11
26563;BME280;14217;50.986;5.826;2022-08-21T08:53:07;101075.97;;;27.48;35.83
26563;BME280;14217;50.986;5.826;2022-08-21T08:58:17;101072.75;;;27.32;35.79
26563;BME280;14217;50.986;5.826;2022-08-21T09:03:22;101064.19;;;27.27;36.00
26563;BME280;14217;50.986;5.826;2022-08-21T09:13:50;101062.72;;;27.34;35.96
26563;BME280;14217;50.986;5.826;2022-08-21T09:29:17;101056.63;;;27.32;35.91
26563;BME280;14217;50.986;5.826;2022-08-21T09:34:30;101071.06;;;27.31;35.79
26563;BME280;14217;50.986;5.826;2022-08-21T09:39:39;101052.47;;;27.39;35.94
26563;BME280;14217;50.986;5.826;2022-08-21T09:44:47;101048.06;;;27.38;36.10
26563;BME280;14217;50.986;5.826;2022-08-21T09:49:48;101047.94;;;27.40;36.49
26563;BME280;14217;50.986;5.826;2022-08-21T09:54:53;101047.94;;;27.40;36.85
26563;BME280;14217;50.986;5.826;2022-08-21T09:59:55;101052.59;;;27.37;36.42
26563;BME280;14217;50.986;5.826;2022-08-21T10:05:21;101049.91;;;27.26;36.32
26563;BME280;14217;50.986;5.826;2022-08-21T10:10:32;101050.28;;;27.33;36.24
26563;BME280;14217;50.986;5.826;2022-08-21T10:27:32;101024.81;;;27.48;36.08
26563;BME280;14217;50.986;5.826;2022-08-21T10:47:47;101032.41;;;27.66;36.17
26563;BME280;14217;50.986;5.826;2022-08-21T10:58:14;101034.84;;;27.57;36.24
26563;BME280;14217;50.986;5.826;2022-08-21T11:08:42;101036.44;;;27.49;35.56
26563;BME280;14217;50.986;5.826;2022-08-21T11:13:58;101021.19;;;27.49;35.57
26563;BME280;14217;50.986;5.826;2022-08-21T11:29:41;101017.84;;;27.57;36.41
26563;BME280;14217;50.986;5.826;2022-08-21T11:40:00;101012.34;;;27.58;36.53
26563;BME280;14217;50.986;5.826;2022-08-21T11:45:31;101020.41;;;27.58;36.53
26563;BME280;14217;50.986;5.826;2022-08-21T11:50:36;101009.41;;;27.62;36.09
26563;BME280;14217;50.986;5.826;2022-08-21T11:55:50;101012.97;;;27.62;36.24
26563;BME280;14217;50.986;5.826;2022-08-21T12:01:00;100999.25;;;27.65;35.99
26563;BME280;14217;50.986;5.826;2022-08-21T12:06:11;101007.09;;;27.68;36.11
26563;BME280;14217;50.986;5.826;2022-08-21T12:16:32;101008.19;;;27.88;35.69
26563;BME280;14217;50.986;5.826;2022-08-21T12:26:55;101001.09;;;27.87;35.62
26563;BME280;14217;50.986;5.826;2022-08-21T12:32:04;101006.69;;;27.84;36.37
26563;BME280;14217;50.986;5.826;2022-08-21T12:37:40;100988.44;;;27.76;36.43
26563;BME280;14217;50.986;5.826;2022-08-21T12:42:46;100994.34;;;27.82;35.58
26563;BME280;14217;50.986;5.826;2022-08-21T12:48:23;101000.94;;;27.77;33.56
26563;BME280;14217;50.986;5.826;2022-08-21T12:58:51;100999.09;;;27.78;33.25
26563;BME280;14217;50.986;5.826;2022-08-21T13:03:58;100996.28;;;27.80;34.67
26563;BME280;14217;50.986;5.826;2022-08-21T13:09:08;100988.22;;;27.80;33.47
26563;BME280;14217;50.986;5.826;2022-08-21T13:19:23;100989.69;;;27.84;33.88
26563;BME280;14217;50.986;5.826;2022-08-21T13:24:27;100982.56;;;27.83;34.25
26563;BME280;14217;50.986;5.826;2022-08-21T13:29:43;100985.41;;;27.92;34.39
26563;BME280;14217;50.986;5.826;2022-08-21T13:34:54;100984.41;;;27.82;33.97
26563;BME280;14217;50.986;5.826;2022-08-21T13:39:56;100976.44;;;27.81;33.88
26563;BME280;14217;50.986;5.826;2022-08-21T13:44:58;100975.00;;;27.88;34.24
26563;BME280;14217;50.986;5.826;2022-08-21T13:50:00;100977.19;;;27.94;34.35
26563;BME280;14217;50.986;5.826;2022-08-21T13:55:12;100982.31;;;27.97;34.18
26563;BME280;14217;50.986;5.826;2022-08-21T14:00:25;100975.81;;;28.00;31.84
26563;BME280;14217;50.986;5.826;2022-08-21T14:05:30;100978.31;;;27.91;33.18
26563;BME280;14217;50.986;5.826;2022-08-21T14:10:36;100971.31;;;27.89;33.68
26563;BME280;14217;50.986;5.826;2022-08-21T14:15:41;100961.16;;;27.92;33.71
26563;BME280;14217;50.986;5.826;2022-08-21T14:20:45;100957.75;;;27.90;33.75
26563;BME280;14217;50.986;5.826;2022-08-21T14:25:47;100956.50;;;27.94;33.80
26563;BME280;14217;50.986;5.826;2022-08-21T14:30:49;100952.97;;;27.94;33.94
26563;BME280;14217;50.986;5.826;2022-08-21T14:35:54;100946.25;;;27.88;34.05
26563;BME280;14217;50.986;5.826;2022-08-21T14:41:00;100959.59;;;27.90;34.00
26563;BME280;14217;50.986;5.826;2022-08-21T14:46:05;100955.31;;;27.87;33.98
26563;BME280;14217;50.986;5.826;2022-08-21T14:51:07;100951.63;;;27.88;33.94
26563;BME280;14217;50.986;5.826;2022-08-21T14:56:09;100965.94;;;27.89;34.35
26563;BME280;14217;50.986;5.826;2022-08-21T15:01:13;100959.31;;;27.82;34.18
26563;BME280;14217;50.986;5.826;2022-08-21T15:06:16;100956.63;;;27.82;34.00
26563;BME280;14217;50.986;5.826;2022-08-21T15:11:21;100953.72;;;27.73;33.36
26563;BME280;14217;50.986;5.826;2022-08-21T15:16:43;100950.50;;;27.91;33.36
26563;BME280;14217;50.986;5.826;2022-08-21T15:21:44;100958.59;;;27.80;33.36
26563;BME280;14217;50.986;5.826;2022-08-21T15:26:47;100952.75;;;27.74;33.06
26563;BME280;14217;50.986;5.826;2022-08-21T15:31:55;100958.22;;;27.84;32.89
26563;BME280;14217;50.986;5.826;2022-08-21T15:36:58;100953.44;;;27.76;33.06
26563;BME280;14217;50.986;5.826;2022-08-21T15:42:01;100961.66;;;27.75;33.05
26563;BME280;14217;50.986;5.826;2022-08-21T15:47:17;100960.28;;;27.81;33.58
26563;BME280;14217;50.986;5.826;2022-08-21T15:52:20;100965.69;;;27.81;33.27
26563;BME280;14217;50.986;5.826;2022-08-21T15:57:24;100968.16;;;27.72;33.40
26563;BME280;14217;50.986;5.826;2022-08-21T16:02:30;100967.06;;;27.75;33.40
26563;BME280;14217;50.986;5.826;2022-08-21T16:07:32;100962.16;;;27.69;33.50
26563;BME280;14217;50.986;5.826;2022-08-21T16:12:40;100958.97;;;27.75;33.19
26563;BME280;14217;50.986;5.826;2022-08-21T16:17:45;100960.94;;;27.73;33.46
26563;BME280;14217;50.986;5.826;2022-08-21T16:22:51;100964.03;;;27.68;33.27
26563;BME280;14217;50.986;5.826;2022-08-21T16:27:57;100955.94;;;27.68;33.34
26563;BME280;14217;50.986;5.826;2022-08-21T16:33:01;100957.03;;;27.77;33.19
26563;BME280;14217;50.986;5.826;2022-08-21T16:38:04;100959.09;;;27.73;33.38
26563;BME280;14217;50.986;5.826;2022-08-21T16:43:06;100947.47;;;27.73;33.44
26563;BME280;14217;50.986;5.826;2022-08-21T16:48:09;100950.28;;;27.71;33.37
26563;BME280;14217;50.986;5.826;2022-08-21T16:53:11;100946.97;;;27.68;33.13
26563;BME280;14217;50.986;5.826;2022-08-21T16:58:31;100936.72;;;27.73;33.59
26563;BME280;14217;50.986;5.826;2022-08-21T17:03:40;100947.22;;;27.76;33.96
26563;BME280;14217;50.986;5.826;2022-08-21T17:08:43;100948.78;;;27.78;33.79
26563;BME280;14217;50.986;5.826;2022-08-21T17:13:45;100944.13;;;27.81;33.62
26563;BME280;14217;50.986;5.826;2022-08-21T17:18:47;100943.22;;;27.70;34.04
26563;BME280;14217;50.986;5.826;2022-08-21T17:23:55;100938.78;;;27.69;33.70
26563;BME280;14217;50.986;5.826;2022-08-21T17:28:57;100941.47;;;27.69;34.02
26563;BME280;14217;50.986;5.826;2022-08-21T17:34:00;100941.47;;;27.69;34.05
26563;BME280;14217;50.986;5.826;2022-08-21T17:39:03;100952.25;;;27.69;34.12
26563;BME280;14217;50.986;5.826;2022-08-21T17:44:07;100946.97;;;27.68;34.51
26563;BME280;14217;50.986;5.826;2022-08-21T17:49:14;100947.72;;;27.70;34.25
26563;BME280;14217;50.986;5.826;2022-08-21T17:54:16;100941.81;;;27.76;34.72
26563;BME280;14217;50.986;5.826;2022-08-21T17:59:18;100940.25;;;27.73;34.67
26563;BME280;14217;50.986;5.826;2022-08-21T18:04:20;100934.25;;;27.70;34.73
26563;BME280;14217;50.986;5.826;2022-08-21T18:09:22;100931.22;;;27.63;34.94
26563;BME280;14217;50.986;5.826;2022-08-21T18:14:32;100925.84;;;27.63;34.96
26563;BME280;14217;50.986;5.826;2022-08-21T18:19:34;100937.44;;;27.64;35.01
26563;BME280;14217;50.986;5.826;2022-08-21T18:24:49;100931.09;;;27.65;35.11
26563;BME280;14217;50.986;5.826;2022-08-21T18:29:54;100937.44;;;27.64;34.87
26563;BME280;14217;50.986;5.826;2022-08-21T18:34:58;100938.03;;;27.78;35.18
26563;BME280;14217;50.986;5.826;2022-08-21T18:40:01;100928.75;;;27.71;35.56
26563;BME280;14217;50.986;5.826;2022-08-21T18:45:06;100936.72;;;27.73;35.23
26563;BME280;14217;50.986;5.826;2022-08-21T18:50:12;100938.41;;;27.74;35.47
26563;BME280;14217;50.986;5.826;2022-08-21T18:55:18;100951.63;;;27.66;35.75
26563;BME280;14217;50.986;5.826;2022-08-21T19:00:25;100948.06;;;27.76;36.08
26563;BME280;14217;50.986;5.826;2022-08-21T19:05:27;100951.47;;;27.78;35.91
26563;BME280;14217;50.986;5.826;2022-08-21T19:10:29;100965.94;;;27.77;36.15
26563;BME280;14217;50.986;5.826;2022-08-21T19:15:33;100961.53;;;27.76;36.38
26563;BME280;14217;50.986;5.826;2022-08-21T19:20:36;100969.47;;;27.78;36.16
26563;BME280;14217;50.986;5.826;2022-08-21T19:25:45;100960.56;;;27.77;36.32
26563;BME280;14217;50.986;5.826;2022-08-21T19:30:57;100974.03;;;27.77;36.74
26563;BME280;14217;50.986;5.826;2022-08-21T19:36:03;100974.88;;;27.78;36.37
26563;BME280;14217;50.986;5.826;2022-08-21T19:41:09;100986.38;;;27.80;36.63
26563;BME280;14217;50.986;5.826;2022-08-21T19:46:16;100989.69;;;27.84;36.60
26563;BME280;14217;50.986;5.826;2022-08-21T19:51:21;100992.59;;;27.81;36.89
26563;BME280;14217;50.986;5.826;2022-08-21T19:56:26;100981.09;;;27.78;36.72
26563;BME280;14217;50.986;5.826;2022-08-21T20:01:28;100985.53;;;27.80;36.75
26563;BME280;14217;50.986;5.826;2022-08-21T20:06:32;100983.28;;;27.85;36.49
26563;BME280;14217;50.986;5.826;2022-08-21T20:11:38;100982.56;;;27.83;36.90
26563;BME280;14217;50.986;5.826;2022-08-21T20:16:41;100985.53;;;27.80;36.75
26563;BME280;14217;50.986;5.826;2022-08-21T20:21:44;100998.97;;;27.80;36.68
26563;BME280;14217;50.986;5.826;2022-08-21T20:26:47;100989.78;;;27.82;36.77
26563;BME280;14217;50.986;5.826;2022-08-21T20:31:50;100993.34;;;27.83;36.74
26563;BME280;14217;50.986;5.826;2022-08-21T20:36:52;100995.72;;;27.87;36.78
26563;BME280;14217;50.986;5.826;2022-08-21T20:41:54;100992.75;;;27.90;36.72
26563;BME280;14217;50.986;5.826;2022-08-21T20:46:58;100996.44;;;27.89;36.79
26563;BME280;14217;50.986;5.826;2022-08-21T20:52:10;100990.31;;;27.87;36.76
26563;BME280;14217;50.986;5.826;2022-08-21T20:57:18;100986.97;;;27.84;36.74
26563;BME280;14217;50.986;5.826;2022-08-21T21:02:42;100986.88;;;27.74;36.86
26563;BME280;14217;50.986;5.826;2022-08-21T21:13:13;100985.25;;;27.83;36.36
26563;BME280;14217;50.986;5.826;2022-08-21T21:18:32;100981.47;;;27.85;37.01
26563;BME280;14217;50.986;5.826;2022-08-21T21:24:19;100980.13;;;27.80;36.91
26563;BME280;14217;50.986;5.826;2022-08-21T21:29:35;100986.50;;;27.90;37.20
26563;BME280;14217;50.986;5.826;2022-08-21T21:34:43;100987.75;;;27.86;37.24
26563;BME280;14217;50.986;5.826;2022-08-21T21:55:38;101001.06;;;27.76;37.46
26563;BME280;14217;50.986;5.826;2022-08-21T22:00:43;100997.41;;;27.88;37.49
26563;BME280;14217;50.986;5.826;2022-08-21T22:11:03;100997.63;;;27.74;38.63
26563;BME280;14217;50.986;5.826;2022-08-21T22:16:24;100998.38;;;27.76;38.74
26563;BME280;14217;50.986;5.826;2022-08-21T22:21:31;100998.00;;;27.69;39.67
26563;BME280;14217;50.986;5.826;2022-08-21T22:26:48;100991.28;;;27.75;39.27
26563;BME280;14217;50.986;5.826;2022-08-21T22:32:11;100995.09;;;27.72;39.51
26563;BME280;14217;50.986;5.826;2022-08-21T22:37:33;100990.94;;;27.68;39.12
26563;BME280;14217;50.986;5.826;2022-08-21T22:42:35;100984.44;;;27.71;38.92
26563;BME280;14217;50.986;5.826;2022-08-21T22:47:41;100992.75;;;27.68;39.55
26563;BME280;14217;50.986;5.826;2022-08-21T22:52:47;100991.13;;;27.76;39.34
26563;BME280;14217;50.986;5.826;2022-08-21T22:58:09;100989.22;;;27.67;39.68
26563;BME280;14217;50.986;5.826;2022-08-21T23:03:31;100987.25;;;27.69;39.42
26563;BME280;14217;50.986;5.826;2022-08-21T23:08:37;100989.09;;;27.69;39.11
26563;BME280;14217;50.986;5.826;2022-08-21T23:13:43;100986.03;;;27.73;39.15
26563;BME280;14217;50.986;5.826;2022-08-21T23:35:04;100987.50;;;27.66;39.33
26563;BME280;14217;50.986;5.826;2022-08-21T23:50:27;100975.50;;;27.70;38.86
